Time;durP1;ratioP1;P1;durP2;ratioP2;P2;SDS_P1;SDS_P2;PMS_P1;PMS_P2;Temp;Humidity;BMP_temperature;BMP_pressure;BME280_temperature;BME280_humidity;BME280_pressure;Samples;Min_cycle;Max_cycle;Signal;HPM_P1;HPM_P2
2024/03/01 00:02:05;;;;;;;15.80;14.03;;;;;;;7.76;70.71;99964.91;5076994;28;20209;-79
2024/03/01 00:04:32;;;;;;;18.47;15.00;;;;;;;7.78;70.64;99957.09;5076952;28;20274;-78
2024/03/01 00:06:58;;;;;;;17.17;13.80;;;;;;;7.85;70.10;99963.03;5087873;28;20214;-78
2024/03/01 00:09:24;;;;;;;17.10;15.27;;;;;;;7.80;69.67;99963.13;5089470;28;20209;-77
2024/03/01 00:11:52;;;;;;;16.40;14.47;;;;;;;7.80;70.05;99968.31;5078589;28;20205;-79
2024/03/01 00:14:18;;;;;;;21.13;17.53;;;;;;;7.90;70.02;99969.03;5077893;28;20235;-79
2024/03/01 00:16:45;;;;;;;23.17;17.07;;;;;;;7.91;69.92;99971.63;5077227;28;20223;-79
2024/03/01 00:19:11;;;;;;;27.83;19.23;;;;;;;7.94;69.72;99979.34;5077468;28;20752;-79
2024/03/01 00:21:37;;;;;;;38.53;24.77;;;;;;;7.83;69.91;99986.47;5077785;28;20209;-79
2024/03/01 00:24:06;;;;;;;33.60;21.37;;;;;;;7.75;69.83;99986.59;5076254;28;20205;-79
2024/03/01 00:26:33;;;;;;;22.10;18.77;;;;;;;7.80;69.76;99980.47;5077860;28;20208;-78
2024/03/01 00:29:00;;;;;;;28.13;21.27;;;;;;;7.84;70.59;99971.72;5070016;28;20206;-78
2024/03/01 00:31:27;;;;;;;26.20;20.30;;;;;;;7.80;69.76;99968.31;5071925;28;20309;-78
2024/03/01 00:33:53;;;;;;;22.27;19.27;;;;;;;7.65;70.93;99958.16;5076695;28;20262;-79
2024/03/01 00:36:20;;;;;;;22.10;17.53;;;;;;;7.68;70.33;99960.72;5077052;28;20663;-78
2024/03/01 00:38:46;;;;;;;19.70;16.27;;;;;;;7.78;69.95;99953.66;5076919;28;20207;-80
2024/03/01 00:41:12;;;;;;;18.50;15.97;;;;;;;7.82;69.83;99966.56;5078488;28;20254;-80
2024/03/01 00:43:38;;;;;;;16.90;15.20;;;;;;;7.83;69.73;99965.69;5078053;28;20210;-80
2024/03/01 00:46:06;;;;;;;16.87;15.10;;;;;;;7.88;68.65;99973.41;5079366;28;20225;-79
2024/03/01 00:48:34;;;;;;;19.47;15.70;;;;;;;7.92;68.54;99990.66;5078108;28;20255;-79
2024/03/01 00:51:01;;;;;;;16.87;14.93;;;;;;;7.83;69.66;99990.78;5079158;28;20225;-80
2024/03/01 00:53:27;;;;;;;19.83;15.77;;;;;;;7.54;70.22;99998.13;5057833;28;20450;-79
2024/03/01 00:55:53;;;;;;;17.80;15.23;;;;;;;7.68;70.16;99968.50;5045339;28;20222;-80
2024/03/01 00:58:20;;;;;;;18.83;16.93;;;;;;;7.47;69.96;99980.94;5052368;28;20201;-79
2024/03/01 01:00:46;;;;;;;18.67;15.83;;;;;;;7.46;70.63;99961.03;5076679;28;20201;-79
2024/03/01 01:03:14;;;;;;;18.63;15.43;;;;;;;7.52;70.71;99945.34;5075557;28;20202;-77
2024/03/01 01:05:40;;;;;;;17.80;15.70;;;;;;;7.27;71.54;99949.16;5075291;28;20217;-79
2024/03/01 01:08:07;;;;;;;21.50;15.97;;;;;;;7.25;70.98;99928.41;5074355;28;20213;-79
2024/03/01 01:10:33;;;;;;;20.93;15.57;;;;;;;7.25;71.09;99928.41;5076228;28;20255;-79
2024/03/01 01:12:59;;;;;;;17.47;15.63;;;;;;;7.29;72.21;99914.50;5074874;28;20675;-79
2024/03/01 01:15:26;;;;;;;17.77;15.43;;;;;;;7.20;71.00;99906.88;5075871;28;20274;-79
2024/03/01 01:17:52;;;;;;;17.47;15.57;;;;;;;7.02;71.34;99907.13;5076303;28;20205;-79
2024/03/01 01:20:21;;;;;;;18.90;16.90;;;;;;;7.07;73.29;99879.34;5075426;28;20214;-80
2024/03/01 01:22:47;;;;;;;17.60;15.80;;;;;;;7.01;72.81;99861.28;5076272;28;20205;-79
2024/03/01 01:25:14;;;;;;;20.67;16.37;;;;;;;6.91;73.89;99855.34;5075407;28;20220;-77
2024/03/01 01:27:40;;;;;;;18.67;16.50;;;;;;;6.93;73.50;99840.63;5072533;28;20217;-79
2024/03/01 01:30:07;;;;;;;19.90;15.97;;;;;;;6.96;73.63;99825.03;5075496;28;20267;-79
2024/03/01 01:32:33;;;;;;;20.10;15.57;;;;;;;6.88;73.31;99813.91;5076225;28;20254;-79
2024/03/01 01:35:00;;;;;;;16.60;14.53;;;;;;;6.85;73.56;99801.81;5075756;28;20236;-79
2024/03/01 01:37:27;;;;;;;18.00;15.20;;;;;;;6.86;73.94;99800.94;5075204;28;20208;-78
2024/03/01 01:39:54;;;;;;;16.37;14.63;;;;;;;6.90;73.82;99796.56;5074949;28;20258;-79
2024/03/01 01:42:20;;;;;;;23.10;15.23;;;;;;;6.88;73.31;99804.38;5074317;28;20204;-77
2024/03/01 01:44:47;;;;;;;18.47;15.53;;;;;;;6.96;74.10;99793.88;5073058;28;20225;-77
2024/03/01 01:47:15;;;;;;;20.93;16.10;;;;;;;6.96;74.96;99786.97;5073116;28;20208;-77
2024/03/01 01:49:41;;;;;;;19.00;16.90;;;;;;;6.82;74.35;99777.66;5073646;28;20241;-79
2024/03/01 01:52:09;;;;;;;20.77;17.03;;;;;;;6.99;73.97;99756.66;5074446;28;20644;-79
2024/03/01 01:54:37;;;;;;;22.17;16.47;;;;;;;6.81;76.52;99753.44;5074324;28;20742;-79
2024/03/01 01:57:04;;;;;;;22.57;18.33;;;;;;;7.10;75.69;99716.69;5074329;28;20323;-79
2024/03/01 01:59:30;;;;;;;24.50;17.03;;;;;;;7.23;74.62;99725.09;5071338;28;20572;-79
2024/03/01 02:01:57;;;;;;;19.23;15.70;;;;;;;7.29;74.09;99742.31;5055177;28;20211;-79
2024/03/01 02:04:24;;;;;;;19.43;16.20;;;;;;;7.29;74.31;99748.38;5055229;28;20251;-78
2024/03/01 02:06:50;;;;;;;21.50;16.33;;;;;;;7.28;73.63;99764.00;5053939;28;20684;-79
2024/03/01 02:09:18;;;;;;;19.90;16.53;;;;;;;7.29;73.18;99768.28;5053867;28;20255;-79
2024/03/01 02:11:47;;;;;;;18.60;15.97;;;;;;;7.27;72.67;99785.63;5054987;28;20283;-79
2024/03/01 02:14:13;;;;;;;19.27;16.53;;;;;;;7.25;72.64;99795.16;5054345;28;20663;-79
2024/03/01 02:16:40;;;;;;;16.53;14.73;;;;;;;7.20;72.58;99802.19;5054754;28;20617;-79
2024/03/01 02:19:13;;;;;;;17.70;15.83;;;;;;;7.10;72.88;99817.03;5054242;28;20210;-79
2024/03/01 02:21:49;;;;;;;17.77;15.87;;;;;;;7.03;73.01;99812.81;5053951;28;20213;-79
2024/03/01 02:24:17;;;;;;;16.87;14.87;;;;;;;6.99;73.51;99811.13;5054149;28;20224;-79
2024/03/01 02:26:43;;;;;;;16.00;14.37;;;;;;;6.90;72.58;99820.78;5054654;28;20217;-78
2024/03/01 02:29:10;;;;;;;18.30;14.23;;;;;;;6.92;72.77;99810.38;5066270;28;20259;-79
2024/03/01 02:31:36;;;;;;;16.30;14.50;;;;;;;6.85;72.96;99803.56;5075056;28;20274;-77
2024/03/01 02:34:02;;;;;;;17.40;14.70;;;;;;;6.61;73.15;99815.13;5074271;28;20209;-79
2024/03/01 02:36:29;;;;;;;20.43;15.63;;;;;;;6.46;74.92;99778.16;5074140;28;20212;-79
2024/03/01 02:38:55;;;;;;;18.07;14.57;;;;;;;6.54;74.34;99757.28;5074846;28;20205;-79
2024/03/01 02:41:23;;;;;;;15.87;13.83;;;;;;;6.41;74.36;99750.56;5074749;28;20204;-79
2024/03/01 02:43:49;;;;;;;19.77;15.93;;;;;;;6.36;75.31;99732.47;5074483;28;20213;-79
2024/03/01 02:46:15;;;;;;;21.57;16.77;;;;;;;6.42;75.62;99716.84;5072887;28;20213;-76
2024/03/01 02:48:42;;;;;;;19.17;15.90;;;;;;;6.45;75.51;99715.94;5074832;28;20291;-79
2024/03/01 02:51:08;;;;;;;17.53;14.80;;;;;;;6.41;76.04;99706.50;5075005;28;20290;-79
2024/03/01 02:53:35;;;;;;;17.43;15.60;;;;;;;6.39;75.88;99709.09;5075257;28;20240;-79
2024/03/01 02:56:01;;;;;;;21.90;16.53;;;;;;;6.31;76.15;99703.16;5086289;28;20286;-79
2024/03/01 02:58:29;;;;;;;20.90;15.50;;;;;;;6.31;75.73;99688.47;5081627;28;20334;-79
2024/03/01 03:00:55;;;;;;;21.10;16.47;;;;;;;6.35;75.72;99684.94;5086582;28;20193;-79
2024/03/01 03:03:22;;;;;;;15.87;14.17;;;;;;;6.31;74.95;99692.81;5084988;28;20216;-78
2024/03/01 03:05:48;;;;;;;21.10;16.80;;;;;;;6.30;75.62;99691.06;5083592;28;20302;-77
2024/03/01 03:08:14;;;;;;;16.93;15.13;;;;;;;6.31;75.79;99682.44;5086972;28;20204;-78
2024/03/01 03:10:41;;;;;;;20.43;16.07;;;;;;;6.10;76.91;99686.16;5086998;28;20229;-79
2024/03/01 03:13:07;;;;;;;20.37;15.93;;;;;;;6.10;77.51;99655.91;5090904;28;20201;-79
2024/03/01 03:15:35;;;;;;;23.20;16.33;;;;;;;6.19;76.95;99641.16;5090655;28;20292;-79
2024/03/01 03:18:01;;;;;;;21.30;16.57;;;;;;;6.06;77.71;99633.53;5090976;28;20401;-78
2024/03/01 03:20:29;;;;;;;16.70;14.70;;;;;;;6.18;76.69;99621.28;5083202;28;20200;-79
2024/03/01 03:22:56;;;;;;;17.37;14.37;;;;;;;6.18;76.63;99629.91;5079328;28;20219;-79
2024/03/01 03:25:23;;;;;;;19.77;15.67;;;;;;;6.15;76.69;99628.22;5079194;28;20236;-79
2024/03/01 03:27:49;;;;;;;18.50;16.13;;;;;;;6.13;76.46;99636.91;5074133;28;20252;-79
2024/03/01 03:30:16;;;;;;;18.27;15.10;;;;;;;6.06;76.63;99648.22;5069894;28;20201;-79
2024/03/01 03:32:45;;;;;;;21.80;15.33;;;;;;;6.13;76.47;99644.69;5076918;28;20251;-79
2024/03/01 03:35:12;;;;;;;20.90;16.37;;;;;;;6.11;76.75;99649.03;5078023;28;20225;-79
2024/03/01 03:37:38;;;;;;;19.93;16.20;;;;;;;6.14;76.93;99648.97;5077583;28;20201;-79
2024/03/01 03:40:13;;;;;;;18.60;15.30;;;;;;;6.18;75.81;99647.19;5077174;28;20255;-78
2024/03/01 03:42:39;;;;;;;17.37;14.27;;;;;;;6.18;75.62;99650.63;5077477;28;20232;-79
2024/03/01 03:45:07;;;;;;;20.20;14.53;;;;;;;6.13;75.62;99653.28;5076492;28;20225;-79
2024/03/01 03:47:33;;;;;;;17.37;15.57;;;;;;;6.16;76.26;99655.88;5076582;28;20204;-77
2024/03/01 03:50:07;;;;;;;20.07;16.57;;;;;;;5.68;78.99;99649.53;5077285;28;20208;-78
2024/03/01 03:52:33;;;;;;;24.97;17.37;;;;;;;5.59;79.71;99601.31;5076713;28;20225;-78
2024/03/01 03:55:00;;;;;;;21.77;17.27;;;;;;;5.63;79.44;99566.75;5075353;28;20221;-76
2024/03/01 03:57:26;;;;;;;25.67;17.33;;;;;;;5.43;80.96;99551.47;5074331;28;20657;-78
2024/03/01 03:59:53;;;;;;;28.63;18.53;;;;;;;5.61;80.76;99516.72;5072364;28;20254;-78
2024/03/01 04:02:19;;;;;;;23.83;18.27;;;;;;;5.71;82.63;99484.63;5055391;28;20620;-79
2024/03/01 04:04:46;;;;;;;24.80;17.67;;;;;;;5.83;81.14;99475.84;5055105;28;20229;-77
2024/03/01 04:07:13;;;;;;;22.80;16.37;;;;;;;5.89;79.85;99493.88;5055330;28;20288;-79
2024/03/01 04:09:40;;;;;;;22.27;17.03;;;;;;;5.85;79.68;99514.66;5057220;28;20235;-79
2024/03/01 04:12:07;;;;;;;20.90;17.33;;;;;;;5.90;80.32;99508.50;5055782;28;20624;-78
2024/03/01 04:14:34;;;;;;;19.83;17.10;;;;;;;6.02;79.89;99504.91;5054778;28;20222;-78
2024/03/01 04:17:00;;;;;;;25.90;17.90;;;;;;;6.03;79.14;99523.94;5056054;28;20270;-78
2024/03/01 04:19:27;;;;;;;18.10;15.73;;;;;;;6.03;78.95;99539.47;5056054;28;20211;-78
2024/03/01 04:21:53;;;;;;;25.07;16.70;;;;;;;6.08;78.27;99546.25;5055913;28;20247;-78
2024/03/01 04:24:21;;;;;;;17.23;15.43;;;;;;;6.02;77.79;99567.09;5055062;28;20222;-78
2024/03/01 04:26:48;;;;;;;21.87;17.57;;;;;;;6.06;77.98;99565.31;5054981;28;20205;-78
2024/03/01 04:29:14;;;;;;;21.27;16.63;;;;;;;5.96;78.00;99577.53;5067257;28;20197;-78
2024/03/01 04:31:43;;;;;;;22.07;17.07;;;;;;;5.84;77.86;99577.69;5076337;28;20228;-79
2024/03/01 04:34:08;;;;;;;20.37;16.00;;;;;;;5.69;78.89;99569.25;5075603;28;20233;-78
2024/03/01 04:36:36;;;;;;;24.03;16.57;;;;;;;5.81;78.69;99555.28;5075925;28;20342;-78
2024/03/01 04:39:05;;;;;;;20.43;17.23;;;;;;;5.67;79.87;99546.81;5074667;28;20213;-78
2024/03/01 04:41:33;;;;;;;19.83;17.07;;;;;;;5.80;79.21;99527.66;5075215;28;20205;-77
2024/03/01 04:43:59;;;;;;;22.13;17.57;;;;;;;5.88;79.93;99527.56;5074922;28;20570;-78
2024/03/01 04:46:26;;;;;;;21.57;17.17;;;;;;;5.91;78.85;99536.13;5075237;28;20205;-78
2024/03/01 04:48:52;;;;;;;19.63;16.17;;;;;;;5.94;78.21;99551.63;5075019;28;20235;-78
2024/03/01 04:51:22;;;;;;;21.87;16.33;;;;;;;5.65;78.90;99572.75;5075586;28;20228;-77
2024/03/01 04:53:49;;;;;;;24.63;18.47;;;;;;;5.55;80.57;99555.63;5074257;28;20218;-76
2024/03/01 04:56:17;;;;;;;22.67;17.27;;;;;;;5.57;81.60;99528.84;5074792;28;20731;-78
2024/03/01 04:58:45;;;;;;;22.63;16.80;;;;;;;5.55;81.96;99507.31;5069841;28;20228;-78
2024/03/01 05:01:11;;;;;;;21.93;16.93;;;;;;;5.71;80.65;99495.00;5075025;28;20257;-78
2024/03/01 05:03:38;;;;;;;22.37;18.20;;;;;;;5.76;80.22;99500.09;5074664;28;20263;-78
2024/03/01 05:06:04;;;;;;;21.77;15.73;;;;;;;5.81;80.12;99510.38;5074391;28;20228;-77
2024/03/01 05:08:31;;;;;;;19.27;16.60;;;;;;;5.74;79.33;99527.75;5074842;28;20640;-78
2024/03/01 05:10:58;;;;;;;24.03;16.57;;;;;;;5.73;78.93;99529.50;5074661;28;20830;-79
2024/03/01 05:13:24;;;;;;;24.60;17.87;;;;;;;5.56;80.62;99518.50;5075180;28;20695;-79
2024/03/01 05:15:52;;;;;;;22.73;17.93;;;;;;;5.64;80.40;99513.22;5074923;28;20224;-80
2024/03/01 05:18:18;;;;;;;25.23;17.93;;;;;;;5.20;82.38;99506.91;5073261;28;20205;-77
2024/03/01 05:20:45;;;;;;;32.07;20.43;;;;;;;5.22;84.02;99463.75;5073862;28;20674;-78
2024/03/01 05:23:12;;;;;;;37.60;21.00;;;;;;;5.24;85.91;99412.84;5073738;28;20238;-79
2024/03/01 05:25:42;;;;;;;29.33;21.03;;;;;;;5.39;85.84;99381.56;5073378;28;20228;-79
2024/03/01 05:28:09;;;;;;;32.90;20.03;;;;;;;5.41;86.42;99359.13;5067873;28;20205;-78
2024/03/01 05:30:36;;;;;;;24.67;18.63;;;;;;;5.46;84.44;99367.66;5073128;28;20203;-79
2024/03/01 05:33:06;;;;;;;25.83;18.50;;;;;;;5.57;85.50;99362.34;5079320;28;20248;-79
2024/03/01 05:35:33;;;;;;;30.77;20.00;;;;;;;5.43;86.12;99372.91;5078203;28;20228;-79
2024/03/01 05:37:59;;;;;;;27.13;19.23;;;;;;;5.45;85.77;99368.56;5073694;28;20212;-79
2024/03/01 05:40:26;;;;;;;32.20;19.70;;;;;;;5.51;85.10;99367.56;5074687;28;20201;-76
2024/03/01 05:42:52;;;;;;;21.83;18.47;;;;;;;5.65;84.09;99369.94;5073596;28;20204;-79
2024/03/01 05:45:20;;;;;;;25.67;18.83;;;;;;;5.67;83.53;99400.13;5073930;28;20254;-79
2024/03/01 05:47:46;;;;;;;28.83;18.70;;;;;;;5.54;84.27;99406.38;5074182;28;20242;-79
2024/03/01 05:50:15;;;;;;;27.40;17.83;;;;;;;5.64;84.09;99404.50;5073806;28;20209;-79
2024/03/01 05:52:42;;;;;;;27.27;18.60;;;;;;;5.65;83.25;99411.38;5073421;28;20731;-79
2024/03/01 05:55:12;;;;;;;25.73;18.53;;;;;;;5.75;84.27;99418.13;5074282;28;20283;-79
2024/03/01 05:57:39;;;;;;;36.90;20.07;;;;;;;5.81;83.43;99422.34;5070102;28;20660;-80
2024/03/01 06:00:17;;;;;;;30.90;21.73;;;;;;;5.75;84.52;99418.97;5070796;28;20203;-78
2024/03/01 06:02:44;;;;;;;30.33;19.87;;;;;;;5.82;83.77;99430.09;5073590;28;20736;-79
2024/03/01 06:05:10;;;;;;;25.90;19.10;;;;;;;5.88;83.86;99431.72;5073580;28;20278;-78
2024/03/01 06:07:38;;;;;;;25.33;18.70;;;;;;;5.92;82.74;99441.16;5073588;28;20223;-79
2024/03/01 06:10:05;;;;;;;24.60;18.00;;;;;;;6.00;82.52;99449.69;5073227;28;20208;-78
2024/03/01 06:12:32;;;;;;;26.80;18.70;;;;;;;5.94;82.71;99458.38;5072759;28;20225;-79
2024/03/01 06:14:58;;;;;;;26.13;19.47;;;;;;;5.90;83.36;99451.53;5073378;28;20232;-77
2024/03/01 06:17:24;;;;;;;26.60;18.17;;;;;;;5.85;83.99;99447.34;5072553;28;20202;-79
2024/03/01 06:19:51;;;;;;;27.87;19.57;;;;;;;5.73;84.00;99459.59;5073414;28;20200;-78
2024/03/01 06:22:17;;;;;;;32.23;20.17;;;;;;;5.80;85.90;99429.25;5073524;28;20208;-79
2024/03/01 06:24:45;;;;;;;26.77;21.13;;;;;;;5.89;85.85;99418.75;5072794;28;20239;-78
2024/03/01 06:27:11;;;;;;;29.87;19.77;;;;;;;6.01;85.15;99432.44;5072454;28;20266;-79
2024/03/01 06:29:38;;;;;;;26.03;19.90;;;;;;;6.08;85.26;99431.44;5066642;28;20251;-77
2024/03/01 06:32:05;;;;;;;36.80;21.57;;;;;;;6.16;84.52;99427.84;5071261;28;20232;-81
2024/03/01 06:34:31;;;;;;;32.53;21.50;;;;;;;6.27;85.29;99435.41;5059575;28;20220;-79
2024/03/01 06:36:57;;;;;;;33.33;21.77;;;;;;;6.43;83.03;99450.69;5053623;28;20213;-79
2024/03/01 06:39:24;;;;;;;30.57;21.83;;;;;;;6.51;82.83;99475.59;5066671;28;20211;-79
2024/03/01 06:41:51;;;;;;;33.27;21.33;;;;;;;6.54;82.23;99488.50;5076766;28;20203;-80
2024/03/01 06:44:23;;;;;;;34.13;21.27;;;;;;;6.62;81.50;99487.50;5078362;28;20221;-79
2024/03/01 06:46:49;;;;;;;35.83;22.13;;;;;;;6.72;81.24;99509.81;5081306;28;20201;-80
2024/03/01 06:49:15;;;;;;;32.23;21.50;;;;;;;6.74;80.93;99519.28;5084484;28;20255;-80
2024/03/01 06:51:42;;;;;;;32.23;21.77;;;;;;;6.64;81.68;99517.72;5083793;28;20206;-80
2024/03/01 06:54:08;;;;;;;29.27;21.10;;;;;;;6.67;82.17;99507.28;5082700;28;20227;-80
2024/03/01 06:56:39;;;;;;;33.33;22.33;;;;;;;6.69;82.17;99509.84;5079375;28;20205;-80
2024/03/01 06:59:07;;;;;;;28.90;21.13;;;;;;;6.73;81.79;99508.91;5078424;28;20216;-79
2024/03/01 07:01:34;;;;;;;34.73;22.10;;;;;;;6.88;81.67;99518.16;5095192;28;20208;-80
2024/03/01 07:04:01;;;;;;;32.47;21.07;;;;;;;6.90;82.00;99525.03;5086576;28;20264;-80
2024/03/01 07:06:28;;;;;;;38.57;22.57;;;;;;;6.95;81.79;99532.72;5075608;28;20232;-82
2024/03/01 07:08:54;;;;;;;34.83;22.80;;;;;;;6.98;81.06;99530.09;5075427;28;20254;-81
2024/03/01 07:11:21;;;;;;;32.73;21.93;;;;;;;7.04;81.03;99527.38;5076522;28;20201;-80
2024/03/01 07:13:48;;;;;;;31.17;21.97;;;;;;;6.95;82.16;99533.56;5075431;28;20216;-80
2024/03/01 07:16:15;;;;;;;35.23;22.50;;;;;;;6.99;82.12;99536.97;5076100;28;20205;-79
2024/03/01 07:18:42;;;;;;;38.30;23.00;;;;;;;6.81;83.24;99530.38;5075438;28;20208;-81
2024/03/01 07:21:08;;;;;;;32.03;22.43;;;;;;;7.06;82.47;99510.03;5074487;28;20231;-80
2024/03/01 07:23:34;;;;;;;30.37;21.17;;;;;;;7.17;82.42;99499.41;5076744;28;20228;-79
2024/03/01 07:26:01;;;;;;;28.40;21.10;;;;;;;6.99;81.78;99520.53;5074698;28;20674;-77
2024/03/01 07:28:27;;;;;;;29.63;20.83;;;;;;;7.20;81.43;99511.50;5067675;28;20204;-79
2024/03/01 07:30:53;;;;;;;33.53;20.97;;;;;;;7.20;81.84;99527.06;5072995;28;20214;-82
2024/03/01 07:33:21;;;;;;;33.23;21.80;;;;;;;7.30;81.27;99515.63;5075460;28;20221;-79
2024/03/01 07:35:48;;;;;;;37.13;21.83;;;;;;;7.14;81.65;99525.44;5075129;28;20284;-80
2024/03/01 07:38:14;;;;;;;28.60;21.33;;;;;;;7.28;81.75;99510.44;5075657;28;20615;-79
2024/03/01 07:40:41;;;;;;;33.70;22.27;;;;;;;7.34;81.89;99518.09;5076249;28;20301;-80
2024/03/01 07:43:07;;;;;;;29.13;20.33;;;;;;;7.16;81.56;99534.91;5075792;28;20671;-80
2024/03/01 07:45:33;;;;;;;28.33;20.47;;;;;;;7.40;81.44;99518.88;5075085;28;20229;-79
2024/03/01 07:48:00;;;;;;;26.47;19.77;;;;;;;7.45;81.01;99528.28;5074165;28;20208;-80
2024/03/01 07:50:27;;;;;;;28.10;20.00;;;;;;;7.42;80.72;99538.72;5074716;28;20209;-79
2024/03/01 07:52:54;;;;;;;28.87;20.40;;;;;;;7.31;81.40;99551.06;5078245;28;20225;-79
2024/03/01 07:55:20;;;;;;;23.33;19.30;;;;;;;7.50;80.83;99543.75;5063458;28;20224;-80
2024/03/01 07:57:48;;;;;;;28.30;19.60;;;;;;;7.60;80.67;99553.06;5059241;28;20268;-79
2024/03/01 08:00:15;;;;;;;29.47;19.87;;;;;;;7.67;81.13;99535.59;5076328;28;20241;-81
2024/03/01 08:02:41;;;;;;;30.33;19.00;;;;;;;7.77;81.59;99526.72;5059494;28;20203;-80
2024/03/01 08:05:09;;;;;;;28.07;20.77;;;;;;;7.48;81.87;99520.41;5058401;28;20720;-79
2024/03/01 08:07:37;;;;;;;28.73;19.67;;;;;;;7.76;81.58;99523.25;5058543;28;20213;-79
2024/03/01 08:10:04;;;;;;;29.80;19.37;;;;;;;7.86;82.39;99521.31;5058600;28;20206;-80
2024/03/01 08:12:31;;;;;;;31.00;19.77;;;;;;;7.93;82.10;99512.50;5061299;28;20316;-80
2024/03/01 08:14:57;;;;;;;30.27;19.80;;;;;;;8.03;83.29;99499.31;5066272;28;20229;-81
2024/03/01 08:17:23;;;;;;;25.17;19.10;;;;;;;8.16;82.69;99487.69;5057680;28;20214;-79
2024/03/01 08:19:50;;;;;;;26.63;19.90;;;;;;;8.22;81.60;99505.75;5058358;28;20206;-80
2024/03/01 08:22:19;;;;;;;31.87;20.00;;;;;;;8.35;82.33;99503.72;5057573;28;20202;-80
2024/03/01 08:24:48;;;;;;;30.13;19.67;;;;;;;8.35;81.07;99530.56;5057713;28;20233;-79
2024/03/01 08:27:16;;;;;;;27.37;19.83;;;;;;;8.24;81.08;99522.16;5057914;28;20267;-80
2024/03/01 08:29:42;;;;;;;25.63;19.10;;;;;;;8.40;81.57;99521.78;5071527;28;20604;-79
2024/03/01 08:32:27;;;;;;;27.83;19.00;;;;;;;8.57;82.81;99493.63;5077933;28;20740;-79
2024/03/01 08:34:56;;;;;;;27.47;19.53;;;;;;;8.44;81.32;99489.63;5078085;28;20286;-80
2024/03/01 08:37:24;;;;;;;23.00;17.93;;;;;;;8.63;81.24;99509.09;5078271;28;20201;-79
2024/03/01 08:39:53;;;;;;;26.87;18.83;;;;;;;8.49;80.00;99532.00;4361041;28;10000826;-79
2024/03/01 08:42:19;;;;;;;24.73;18.33;;;;;;;8.58;80.14;99547.34;5054520;28;20213;-79
2024/03/01 08:44:54;;;;;;;27.60;19.67;;;;;;;8.62;80.15;99555.94;5054253;28;20279;-79
2024/03/01 08:47:26;;;;;;;25.17;18.20;;;;;;;8.66;80.15;99561.06;5053687;28;20262;-79
2024/03/01 08:50:38;;;;;;;23.77;19.17;;;;;;;8.82;79.26;99569.31;5056195;28;20214;-82
2024/03/01 08:53:55;;;;;;;19.93;17.83;;;;;;;8.78;79.51;99588.50;5056982;28;20225;-81
2024/03/01 08:56:25;;;;;;;20.63;17.20;;;;;;;8.92;78.66;99599.41;5051500;28;20214;-80
2024/03/01 08:58:54;;;;;;;24.93;17.37;;;;;;;8.97;79.52;99599.28;5060545;28;20205;-78
2024/03/01 09:01:43;;;;;;;23.07;18.80;;;;;;;9.01;78.47;99608.72;5075081;28;20223;-79
2024/03/01 09:04:12;;;;;;;24.90;18.07;;;;;;;9.10;78.65;99618.06;5074185;28;20599;-80
2024/03/01 09:06:39;;;;;;;25.47;17.87;;;;;;;8.98;78.70;99629.63;5075105;28;20209;-80
2024/03/01 09:09:06;;;;;;;21.50;17.77;;;;;;;9.07;78.11;99644.16;5075510;28;20256;-80
2024/03/01 09:11:34;;;;;;;19.33;16.93;;;;;;;9.04;77.87;99655.50;5075387;28;20243;-80
2024/03/01 09:14:00;;;;;;;24.90;17.53;;;;;;;9.12;77.94;99647.50;5078946;28;20225;-80
2024/03/01 09:16:26;;;;;;;23.67;17.93;;;;;;;9.31;77.13;99668.69;5076358;28;20215;-80
2024/03/01 09:18:54;;;;;;;20.73;17.20;;;;;;;9.36;77.04;99668.59;5075642;28;20212;-80
2024/03/01 09:21:39;;;;;;;25.37;17.40;;;;;;;9.40;77.27;99662.41;5076052;28;20204;-80
2024/03/01 09:24:06;;;;;;;24.53;16.20;;;;;;;9.42;77.43;99669.28;5077625;28;20212;-79
2024/03/01 09:26:33;;;;;;;22.10;17.57;;;;;;;9.21;76.79;99699.31;5085975;28;20234;-80
2024/03/01 09:29:02;;;;;;;22.40;16.97;;;;;;;9.31;77.11;99707.75;5079547;28;20205;-79
2024/03/01 09:31:30;;;;;;;23.57;17.93;;;;;;;9.36;76.79;99708.50;5090674;28;20268;-81
2024/03/01 09:33:57;;;;;;;23.10;17.40;;;;;;;9.34;77.46;99713.75;5090500;28;20212;-80
2024/03/01 09:36:23;;;;;;;21.07;17.33;;;;;;;9.28;77.25;99713.06;5090442;28;20228;-80
2024/03/01 09:38:54;;;;;;;21.47;17.63;;;;;;;9.36;78.14;99702.47;5083144;28;20217;-78
2024/03/01 09:41:34;;;;;;;20.57;16.97;;;;;;;9.36;76.81;99711.13;5060604;28;20225;-81
2024/03/01 09:44:10;;;;;;;22.60;17.37;;;;;;;9.53;76.06;99716.75;5056262;28;20548;-81
2024/03/01 09:46:45;;;;;;;25.17;18.30;;;;;;;9.74;76.12;99720.50;5055372;28;20210;-81
2024/03/01 09:49:25;;;;;;;24.43;18.63;;;;;;;9.67;74.76;99751.97;5055797;28;20904;-81
2024/03/01 09:52:01;;;;;;;23.70;18.07;;;;;;;9.77;74.68;99778.66;5055710;28;20203;-80
2024/03/01 09:54:29;;;;;;;21.13;17.93;;;;;;;9.94;73.68;99798.16;5055677;28;20304;-81
2024/03/01 09:57:06;;;;;;;19.27;16.67;;;;;;;10.14;73.93;99808.06;5054804;28;20208;-81
2024/03/01 09:59:42;;;;;;;19.10;16.63;;;;;;;10.10;73.54;99824.69;5066238;28;20718;-81
2024/03/01 10:02:25;;;;;;;21.53;16.77;;;;;;;10.25;73.14;99840.84;5074328;28;20209;-81
2024/03/01 10:05:07;;;;;;;20.33;16.53;;;;;;;10.42;73.02;99848.22;5075925;28;20263;-79
2024/03/01 10:07:39;;;;;;;20.47;15.87;;;;;;;10.41;72.49;99867.41;5075249;28;20220;-81
2024/03/01 10:10:34;;;;;;;17.73;15.90;;;;;;;10.39;73.01;99864.81;5074927;28;20801;-81
2024/03/01 10:13:09;;;;;;;19.10;15.67;;;;;;;10.58;72.95;99857.31;5075108;28;20233;-79
2024/03/01 10:15:41;;;;;;;18.30;15.57;;;;;;;10.65;73.58;99848.44;5073554;28;20286;-81
2024/03/01 10:18:30;;;;;;;21.27;15.27;;;;;;;10.64;72.83;99861.53;5074048;28;20222;-82
2024/03/01 10:21:19;;;;;;;20.77;15.60;;;;;;;10.74;72.67;99862.97;5074964;28;20677;-81
2024/03/01 10:23:59;;;;;;;17.27;15.43;;;;;;;10.75;72.50;99871.66;5075758;28;20208;-82
2024/03/01 10:26:28;;;;;;;16.57;14.87;;;;;;;10.83;72.58;99872.31;5074517;28;20236;-81
2024/03/01 10:29:18;;;;;;;16.60;14.87;;;;;;;10.68;72.68;99889.25;5078110;28;20223;-80
2024/03/01 10:31:56;;;;;;;18.07;15.33;;;;;;;10.71;71.51;99897.84;5081445;28;20270;-78
2024/03/01 10:34:35;;;;;;;21.50;15.13;;;;;;;10.63;72.08;99907.66;5075576;28;20267;-82
2024/03/01 10:37:21;;;;;;;16.87;15.00;;;;;;;10.64;72.92;99880.63;5074228;28;20264;-82
2024/03/01 10:39:56;;;;;;;17.73;15.53;;;;;;;10.80;73.44;99865.41;5059173;28;20268;-83
2024/03/01 10:42:28;;;;;;;22.50;16.47;;;;;;;10.98;72.47;99863.13;5054142;28;20642;-80
2024/03/01 10:45:05;;;;;;;17.53;15.73;;;;;;;11.05;71.54;99867.28;5055186;28;20264;-82
2024/03/01 10:47:34;;;;;;;16.63;14.93;;;;;;;11.28;70.99;99887.50;5052766;28;20248;-81
2024/03/01 10:50:14;;;;;;;17.17;15.43;;;;;;;11.28;70.67;99914.47;5053802;28;20208;-81
2024/03/01 10:52:44;;;;;;;18.13;16.27;;;;;;;11.23;70.20;99916.34;5054415;28;20209;-81
2024/03/01 10:55:18;;;;;;;16.03;14.43;;;;;;;11.21;70.38;99930.38;5054987;28;20259;-84
2024/03/01 10:57:50;;;;;;;19.10;16.40;;;;;;;11.19;70.73;99933.03;5057213;28;20948;-81
2024/03/01 11:00:24;;;;;;;20.27;16.60;;;;;;;11.22;70.24;99926.84;5074601;28;20269;-80
2024/03/01 11:03:01;;;;;;;16.97;15.37;;;;;;;11.37;70.56;99939.47;5074802;28;20279;-81
2024/03/01 11:05:32;;;;;;;21.63;16.83;;;;;;;11.33;70.30;99950.91;5074259;28;20277;-81
2024/03/01 11:08:12;;;;;;;16.90;15.17;;;;;;;11.42;70.89;99950.63;5073977;28;20214;-80
2024/03/01 11:10:48;;;;;;;17.67;15.13;;;;;;;11.46;70.60;99938.34;5073116;28;20216;-79
2024/03/01 11:13:18;;;;;;;18.73;15.63;;;;;;;11.29;70.58;99951.91;5073759;28;20260;-80
2024/03/01 11:15:47;;;;;;;17.87;15.87;;;;;;;11.45;70.33;99942.69;5072049;28;20237;-79
2024/03/01 11:18:20;;;;;;;17.73;15.77;;;;;;;11.63;70.57;99945.66;5071687;28;20263;-80
2024/03/01 11:20:53;;;;;;;17.70;14.57;;;;;;;11.64;70.89;99934.31;5072433;28;20231;-80
2024/03/01 11:23:22;;;;;;;16.47;14.77;;;;;;;11.49;72.13;99927.78;5083009;28;20202;-80
2024/03/01 11:25:57;;;;;;;17.17;14.97;;;;;;;11.53;71.14;99911.09;5072706;28;20241;-80
2024/03/01 11:28:25;;;;;;;16.97;15.27;;;;;;;11.62;70.68;99928.25;5075674;28;20631;-80
2024/03/01 11:30:56;;;;;;;15.07;13.57;;;;;;;11.62;71.19;99921.28;5075485;28;20260;-80
2024/03/01 11:33:26;;;;;;;14.60;13.20;;;;;;;11.69;71.35;99909.72;5075321;28;20237;-79